Time;durP1;ratioP1;P1;durP2;ratioP2;P2;SDS_P1;SDS_P2;PMS_P1;PMS_P2;Temp;Humidity;BMP_temperature;BMP_pressure;BME280_temperature;BME280_humidity;BME280_pressure;Samples;Min_cycle;Max_cycle;Signal;HPM_P1;HPM_P2
2023/04/22 00:00:07;;;;;;;1.50;1.40;;;11.80;96.40;;;;;;5047863;28;20628;-74
2023/04/22 00:02:37;;;;;;;2.00;1.80;;;11.80;96.00;;;;;;5052874;28;20642;-74
2023/04/22 00:05:06;;;;;;;1.87;1.60;;;11.80;96.40;;;;;;5053963;28;20660;-74
2023/04/22 00:07:34;;;;;;;1.63;1.53;;;11.70;96.10;;;;;;5051410;28;20735;-74
2023/04/22 00:10:02;;;;;;;1.50;1.40;;;11.50;95.10;;;;;;5050354;28;20631;-74
2023/04/22 00:12:29;;;;;;;1.07;0.97;;;11.50;96.70;;;;;;5050999;28;20650;-74
2023/04/22 00:14:55;;;;;;;1.40;1.30;;;11.40;95.30;;;;;;5051020;28;20984;-74
2023/04/22 00:17:23;;;;;;;6.83;1.93;;;11.50;96.40;;;;;;5050996;28;20703;-74
2023/04/22 00:19:51;;;;;;;2.57;1.90;;;11.50;95.50;;;;;;5049802;28;20627;-74
2023/04/22 00:22:18;;;;;;;2.67;2.20;;;11.50;94.70;;;;;;5051263;28;20656;-74
2023/04/22 00:24:45;;;;;;;2.20;1.70;;;11.50;94.40;;;;;;5050709;28;20615;-74
2023/04/22 00:27:12;;;;;;;1.97;1.60;;;11.60;95.70;;;;;;5050531;28;20651;-74
2023/04/22 00:29:39;;;;;;;1.83;1.40;;;11.50;95.60;;;;;;5050002;28;21354;-74
2023/04/22 00:32:05;;;;;;;2.17;2.07;;;11.50;95.50;;;;;;5050488;28;20656;-74
2023/04/22 00:34:32;;;;;;;2.20;1.67;;;11.50;95.60;;;;;;5050451;28;20656;-74
2023/04/22 00:37:01;;;;;;;1.77;1.67;;;11.50;95.70;;;;;;5051040;28;21009;-74
2023/04/22 00:39:28;;;;;;;1.93;1.70;;;11.50;95.30;;;;;;5049687;28;20664;-74
2023/04/22 00:41:55;;;;;;;2.33;1.80;;;11.50;95.90;;;;;;5042568;28;20643;-74
2023/04/22 00:44:23;;;;;;;2.57;2.37;;;11.50;96.70;;;;;;5050541;28;20638;-74
2023/04/22 00:46:50;;;;;;;1.83;1.73;;;11.50;97.10;;;;;;5050102;28;20656;-74
2023/04/22 00:49:18;;;;;;;2.10;1.90;;;11.50;97.40;;;;;;5049542;28;21083;-74
2023/04/22 00:51:44;;;;;;;2.27;1.93;;;11.50;98.10;;;;;;5050346;28;20980;-74
2023/04/22 00:54:12;;;;;;;1.57;1.47;;;11.40;97.50;;;;;;5049776;28;20619;-74
2023/04/22 00:56:39;;;;;;;1.27;1.17;;;11.40;97.70;;;;;;5050155;28;20655;-74
2023/04/22 00:59:08;;;;;;;2.00;1.90;;;11.40;97.80;;;;;;5048816;28;20746;-74
2023/04/22 01:01:36;;;;;;;1.40;1.30;;;11.20;97.20;;;;;;5048835;28;20688;-73
2023/04/22 01:04:04;;;;;;;2.00;1.27;;;11.20;98.60;;;;;;5049059;28;21028;-74
2023/04/22 01:06:31;;;;;;;5.50;1.80;;;11.30;98.20;;;;;;5048253;28;20659;-74
2023/04/22 01:08:58;;;;;;;2.20;2.00;;;11.30;98.50;;;;;;5049260;28;20647;-74
2023/04/22 01:11:26;;;;;;;2.00;1.50;;;11.30;98.40;;;;;;5048423;28;21174;-74
2023/04/22 01:13:53;;;;;;;1.67;1.40;;;11.30;98.50;;;;;;5049949;28;21192;-74
2023/04/22 01:16:22;;;;;;;4.07;2.20;;;11.20;98.90;;;;;;5049741;28;21056;-74
2023/04/22 01:18:51;;;;;;;2.63;2.43;;;11.30;98.50;;;;;;5048924;28;21350;-74
2023/04/22 01:21:19;;;;;;;2.00;1.80;;;11.30;98.50;;;;;;5049071;28;20648;-74
2023/04/22 01:23:48;;;;;;;1.87;1.50;;;11.20;98.90;;;;;;5049915;28;20747;-74
2023/04/22 01:26:16;;;;;;;2.13;1.83;;;11.20;98.80;;;;;;5049210;28;20652;-74
2023/04/22 01:28:45;;;;;;;1.90;1.80;;;11.20;98.90;;;;;;5048605;28;21038;-74
2023/04/22 01:31:12;;;;;;;3.23;2.73;;;11.10;98.80;;;;;;5050017;28;20702;-74
2023/04/22 01:33:39;;;;;;;2.20;2.00;;;11.00;99.30;;;;;;5049127;28;20629;-74
2023/04/22 01:36:07;;;;;;;2.13;1.73;;;11.00;99.20;;;;;;5049385;28;20829;-74
2023/04/22 01:38:35;;;;;;;2.53;2.33;;;11.00;98.80;;;;;;5048816;28;20780;-74
2023/04/22 01:41:04;;;;;;;2.10;1.90;;;11.10;98.80;;;;;;5042141;28;20660;-73
2023/04/22 01:43:32;;;;;;;2.13;1.93;;;11.10;99.40;;;;;;5041329;28;20643;-74
2023/04/22 01:46:01;;;;;;;3.90;2.33;;;11.00;99.40;;;;;;5048989;28;20664;-75
2023/04/22 01:48:29;;;;;;;2.50;2.17;;;11.00;99.60;;;;;;5048504;28;20628;-73
2023/04/22 01:50:56;;;;;;;1.80;1.60;;;11.00;99.30;;;;;;5047736;28;20641;-74
2023/04/22 01:53:24;;;;;;;2.77;2.00;;;11.00;98.80;;;;;;5049030;28;21049;-74
2023/04/22 01:55:51;;;;;;;1.83;1.73;;;11.00;98.90;;;;;;5029378;28;20648;-74
2023/04/22 01:58:20;;;;;;;2.17;1.70;;;11.00;99.00;;;;;;5038689;28;20653;-73
2023/04/22 02:00:49;;;;;;;2.40;1.87;;;10.90;99.00;;;;;;5048635;28;20656;-74
2023/04/22 02:03:17;;;;;;;2.17;1.97;;;10.90;99.70;;;;;;5047775;28;20682;-74
2023/04/22 02:05:44;;;;;;;1.47;1.37;;;10.90;99.30;;;;;;5048671;28;20650;-74
2023/04/22 02:08:20;;;;;;;1.63;1.53;;;11.00;98.90;;;;;;5048337;28;20636;-73
2023/04/22 02:10:46;;;;;;;4.00;2.67;;;11.00;98.70;;;;;;5048351;28;20681;-73
2023/04/22 02:13:13;;;;;;;1.77;1.60;;;11.00;98.50;;;;;;5048166;28;20635;-74
2023/04/22 02:15:41;;;;;;;2.37;2.07;;;11.00;98.50;;;;;;5048364;28;21216;-74
2023/04/22 02:18:09;;;;;;;3.17;2.00;;;11.00;98.40;;;;;;5048114;28;21220;-74
2023/04/22 02:20:36;;;;;;;7.83;2.00;;;11.00;98.80;;;;;;5047735;28;21008;-74
2023/04/22 02:23:04;;;;;;;1.97;1.60;;;11.00;98.50;;;;;;5048248;28;20638;-74
2023/04/22 02:25:31;;;;;;;1.60;1.50;;;11.00;98.40;;;;;;5048287;28;21058;-74
2023/04/22 02:27:59;;;;;;;0.90;0.90;;;11.00;98.30;;;;;;5047460;28;21131;-73
2023/04/22 02:30:27;;;;;;;2.07;1.90;;;11.00;98.60;;;;;;5047997;28;20655;-74
2023/04/22 02:32:55;;;;;;;1.70;1.40;;;11.00;98.50;;;;;;5048456;28;20654;-74
2023/04/22 02:35:23;;;;;;;1.97;1.80;;;11.00;97.80;;;;;;5047892;28;20627;-74
2023/04/22 02:37:50;;;;;;;2.83;2.17;;;11.00;98.20;;;;;;5047766;28;20619;-74
2023/04/22 02:40:17;;;;;;;2.00;1.80;;;11.00;98.20;;;;;;5046465;28;20703;-74
2023/04/22 02:42:44;;;;;;;2.07;1.87;;;11.00;98.30;;;;;;5033037;28;20624;-74
2023/04/22 02:45:12;;;;;;;3.93;2.63;;;11.00;98.40;;;;;;5029918;28;21016;-73
2023/04/22 02:47:39;;;;;;;2.73;2.50;;;11.00;97.90;;;;;;5048314;28;20723;-74
2023/04/22 02:50:09;;;;;;;2.60;2.40;;;11.00;97.80;;;;;;5047224;28;20629;-74
2023/04/22 02:52:37;;;;;;;4.23;2.57;;;11.00;98.30;;;;;;5047786;28;20639;-74
2023/04/22 02:55:06;;;;;;;2.60;2.40;;;10.90;97.60;;;;;;5047631;28;20637;-74
2023/04/22 02:57:33;;;;;;;3.27;2.50;;;10.90;97.60;;;;;;5048104;28;20620;-74
2023/04/22 03:00:01;;;;;;;2.80;2.60;;;10.90;98.30;;;;;;5036138;28;21230;-74
2023/04/22 03:02:29;;;;;;;2.67;2.43;;;10.90;98.30;;;;;;5046727;28;20987;-74
2023/04/22 03:04:57;;;;;;;3.63;2.50;;;10.90;98.10;;;;;;5047448;28;20635;-74
2023/04/22 03:07:26;;;;;;;3.00;2.80;;;10.80;98.10;;;;;;5047670;28;20664;-74
2023/04/22 03:09:54;;;;;;;3.33;3.00;;;10.80;97.90;;;;;;5046989;28;20621;-74
2023/04/22 03:12:21;;;;;;;4.77;3.53;;;10.90;98.00;;;;;;5047814;28;20738;-74
2023/04/22 03:14:48;;;;;;;4.93;4.07;;;10.90;98.00;;;;;;5047319;28;20643;-74
2023/04/22 03:17:15;;;;;;;4.30;3.37;;;10.90;98.10;;;;;;5047645;28;21106;-75
2023/04/22 03:19:42;;;;;;;4.47;3.00;;;10.90;98.70;;;;;;5046480;28;20653;-74
2023/04/22 03:22:08;;;;;;;4.63;3.87;;;10.90;98.50;;;;;;5047370;28;20647;-73
2023/04/22 03:24:37;;;;;;;4.67;3.90;;;10.90;98.70;;;;;;5047938;28;20647;-74
2023/04/22 03:27:04;;;;;;;3.70;2.50;;;10.90;98.70;;;;;;5047468;28;20642;-74
2023/04/22 03:29:31;;;;;;;3.57;3.20;;;10.90;99.00;;;;;;5047110;28;20666;-74
2023/04/22 03:31:57;;;;;;;5.23;4.00;;;10.90;99.10;;;;;;5047519;28;20680;-74
2023/04/22 03:34:24;;;;;;;3.00;2.70;;;10.80;99.20;;;;;;5047776;28;20631;-74
2023/04/22 03:36:51;;;;;;;3.57;3.27;;;10.80;99.30;;;;;;5051869;28;21307;-74
2023/04/22 03:39:18;;;;;;;3.73;3.30;;;10.80;99.60;;;;;;5051722;28;20659;-74
2023/04/22 03:41:46;;;;;;;4.97;3.93;;;10.80;99.40;;;;;;5051435;28;20700;-74
2023/04/22 03:44:12;;;;;;;5.27;3.60;;;10.80;99.80;;;;;;5051151;28;20638;-74
2023/04/22 03:46:39;;;;;;;4.10;3.60;;;10.70;99.90;;;;;;5051020;28;20657;-74
2023/04/22 03:49:06;;;;;;;4.23;3.87;;;10.80;99.90;;;;;;5050689;28;20632;-74
2023/04/22 03:51:33;;;;;;;3.80;3.40;;;10.70;99.90;;;;;;5051257;28;21192;-74
2023/04/22 03:53:59;;;;;;;4.23;3.20;;;10.70;99.90;;;;;;5051435;28;20637;-74
2023/04/22 03:56:26;;;;;;;5.93;2.50;;;10.50;99.90;;;;;;5051306;28;20660;-74
2023/04/22 03:58:55;;;;;;;4.70;4.20;;;10.40;99.90;;;;;;5050228;28;20651;-74
2023/04/22 04:01:22;;;;;;;5.20;4.00;;;10.30;99.90;;;;;;5049689;28;20682;-73
2023/04/22 04:03:49;;;;;;;4.97;4.47;;;10.30;99.90;;;;;;5050695;28;20626;-74
2023/04/22 04:06:16;;;;;;;6.33;3.93;;;10.40;99.90;;;;;;5051207;28;20647;-74
2023/04/22 04:08:42;;;;;;;4.10;3.80;;;10.30;99.90;;;;;;5050310;28;20632;-73
2023/04/22 04:11:10;;;;;;;4.20;3.80;;;10.40;99.90;;;;;;5050998;28;20655;-74
2023/04/22 04:13:37;;;;;;;4.03;3.40;;;10.40;99.90;;;;;;5050618;28;21002;-74
2023/04/22 04:16:06;;;;;;;4.03;3.13;;;10.30;99.90;;;;;;5050544;28;21246;-74
2023/04/22 04:18:32;;;;;;;4.20;3.30;;;10.20;99.90;;;;;;5050762;28;20611;-73
2023/04/22 04:20:59;;;;;;;3.63;3.33;;;10.20;99.90;;;;;;5050903;28;20651;-73
2023/04/22 04:23:26;;;;;;;3.47;2.90;;;10.20;99.90;;;;;;5034531;28;20718;-74
2023/04/22 04:25:54;;;;;;;3.30;3.00;;;10.20;99.90;;;;;;5059083;28;20654;-74
2023/04/22 04:28:21;;;;;;;5.00;3.00;;;10.20;99.90;;;;;;5050656;28;21897;-73
2023/04/22 04:30:48;;;;;;;3.23;2.93;;;10.10;99.90;;;;;;5049796;28;20647;-76
2023/04/22 04:33:16;;;;;;;3.60;2.87;;;9.90;99.90;;;;;;5050975;28;20989;-74
2023/04/22 04:35:43;;;;;;;4.07;3.70;;;9.90;99.90;;;;;;5050654;28;20959;-74
2023/04/22 04:38:13;;;;;;;3.17;2.47;;;10.00;99.90;;;;;;5050258;28;20626;-74
2023/04/22 04:40:45;;;;;;;4.03;2.80;;;10.00;99.90;;;;;;5046095;28;20700;-74
2023/04/22 04:43:13;;;;;;;5.00;2.70;;;10.00;99.90;;;;;;5049218;28;20629;-74
2023/04/22 04:45:45;;;;;;;2.43;2.23;;;10.10;99.90;;;;;;5049865;28;20696;-74
2023/04/22 04:48:13;;;;;;;2.17;1.97;;;10.00;99.90;;;;;;5049646;28;20659;-74
2023/04/22 04:50:42;;;;;;;2.67;2.33;;;10.00;99.90;;;;;;5050351;28;20653;-74
2023/04/22 04:53:08;;;;;;;3.30;3.00;;;10.00;99.90;;;;;;5044169;28;20628;-74
2023/04/22 04:55:35;;;;;;;7.80;4.10;;;10.00;99.90;;;;;;5050125;28;20654;-73
2023/04/22 04:58:02;;;;;;;17.70;3.13;;;9.90;99.90;;;;;;5049604;28;20624;-74
2023/04/22 05:00:29;;;;;;;4.63;2.80;;;9.90;99.90;;;;;;5049791;28;20667;-74
2023/04/22 05:02:56;;;;;;;3.80;3.00;;;10.00;99.90;;;;;;5048743;28;20616;-74
2023/04/22 05:05:23;;;;;;;5.50;3.73;;;10.10;99.90;;;;;;5050077;28;20655;-74
2023/04/22 05:07:52;;;;;;;2.70;2.37;;;10.10;99.90;;;;;;5049859;28;21016;-74
2023/04/22 05:10:19;;;;;;;2.77;2.40;;;10.20;99.90;;;;;;5048301;28;20655;-74
2023/04/22 05:12:46;;;;;;;3.27;2.93;;;10.20;99.90;;;;;;5049990;28;20652;-74
2023/04/22 05:15:13;;;;;;;3.53;3.17;;;10.20;99.90;;;;;;5049957;28;21026;-74
2023/04/22 05:17:46;;;;;;;1.83;1.67;;;10.20;99.80;;;;;;5049858;28;20635;-74
2023/04/22 05:20:13;;;;;;;5.03;3.03;;;10.30;99.90;;;;;;5049354;28;20655;-73
2023/04/22 05:22:41;;;;;;;1.77;1.67;;;10.30;99.90;;;;;;5048764;28;20623;-74
2023/04/22 05:25:10;;;;;;;2.50;2.03;;;10.20;99.90;;;;;;5049832;28;20638;-74
2023/04/22 05:27:37;;;;;;;7.90;2.70;;;10.20;99.60;;;;;;5049837;28;20628;-74
2023/04/22 05:30:05;;;;;;;2.03;1.93;;;10.30;99.90;;;;;;5048434;28;20723;-74
2023/04/22 05:32:32;;;;;;;4.07;2.67;;;10.30;99.90;;;;;;5049479;28;20689;-74
2023/04/22 05:34:59;;;;;;;1.90;1.80;;;10.30;99.90;;;;;;5049425;28;21048;-74
2023/04/22 05:37:25;;;;;;;3.03;2.43;;;10.30;99.60;;;;;;5049191;28;20647;-74
2023/04/22 05:39:52;;;;;;;2.20;2.00;;;10.40;99.00;;;;;;5049002;28;20672;-74
2023/04/22 05:42:20;;;;;;;1.60;1.50;;;10.30;98.60;;;;;;5048723;28;20772;-74
2023/04/22 05:44:47;;;;;;;1.83;1.70;;;10.40;98.90;;;;;;5048938;28;20646;-74
2023/04/22 05:47:14;;;;;;;1.70;1.60;;;10.50;98.70;;;;;;5049374;28;20660;-74
2023/04/22 05:49:41;;;;;;;2.13;1.80;;;10.60;98.60;;;;;;5048501;28;20659;-74
2023/04/22 05:52:07;;;;;;;2.07;1.80;;;10.60;98.50;;;;;;5048331;28;20654;-71
2023/04/22 05:54:34;;;;;;;1.50;1.40;;;10.60;98.40;;;;;;5049064;28;20638;-71
2023/04/22 05:57:04;;;;;;;3.43;2.00;;;10.70;98.50;;;;;;5048778;28;20676;-71
2023/04/22 05:59:32;;;;;;;3.83;2.23;;;10.70;98.40;;;;;;5040910;28;20755;-71
2023/04/22 06:01:58;;;;;;;1.90;1.80;;;10.80;98.60;;;;;;5037390;28;20659;-71
2023/04/22 06:04:25;;;;;;;4.17;3.93;;;10.80;98.50;;;;;;5041803;28;20642;-71
2023/04/22 06:06:53;;;;;;;1.93;1.63;;;10.90;98.40;;;;;;5039969;28;20752;-71
2023/04/22 06:09:20;;;;;;;2.33;2.07;;;11.00;98.10;;;;;;5039654;28;21164;-71
2023/04/22 06:11:46;;;;;;;2.93;1.87;;;11.10;98.00;;;;;;5045510;28;21157;-71
2023/04/22 06:14:13;;;;;;;1.90;1.77;;;11.20;98.10;;;;;;5048561;28;20642;-73
2023/04/22 06:16:41;;;;;;;2.00;1.47;;;11.30;97.80;;;;;;5048631;28;20646;-71
2023/04/22 06:19:08;;;;;;;3.13;2.93;;;11.40;98.00;;;;;;5047407;28;20642;-71
2023/04/22 06:21:37;;;;;;;2.53;2.33;;;11.40;97.90;;;;;;5048202;28;21006;-71
2023/04/22 06:24:04;;;;;;;3.67;2.90;;;11.60;97.90;;;;;;5048162;28;20647;-71
2023/04/22 06:26:31;;;;;;;2.00;1.67;;;11.70;97.50;;;;;;5048029;28;20737;-71
2023/04/22 06:28:58;;;;;;;2.27;1.77;;;11.80;97.80;;;;;;5048002;28;20642;-72
2023/04/22 06:31:25;;;;;;;2.63;2.10;;;11.90;97.80;;;;;;5047648;28;20649;-72
2023/04/22 06:33:53;;;;;;;1.83;1.70;;;12.00;97.60;;;;;;5046982;28;20632;-72
2023/04/22 06:36:20;;;;;;;4.37;2.33;;;12.20;97.40;;;;;;5047986;28;20657;-72
2023/04/22 06:38:47;;;;;;;2.10;1.90;;;12.20;97.20;;;;;;5047417;28;20767;-73
2023/04/22 06:41:16;;;;;;;2.80;1.53;;;12.20;97.00;;;;;;5047588;28;20672;-73
2023/04/22 06:43:43;;;;;;;3.30;2.17;;;12.30;97.30;;;;;;5047997;28;20654;-74
2023/04/22 06:46:10;;;;;;;2.67;2.10;;;12.30;97.20;;;;;;5047601;28;20664;-73
2023/04/22 06:48:37;;;;;;;3.47;2.50;;;12.30;97.30;;;;;;5047296;28;20632;-72
2023/04/22 06:51:05;;;;;;;1.60;1.50;;;12.40;97.10;;;;;;5048315;28;20786;-72
2023/04/22 06:53:32;;;;;;;2.17;2.07;;;12.50;96.80;;;;;;5047786;28;20660;-73
2023/04/22 06:55:59;;;;;;;1.50;1.40;;;12.50;96.70;;;;;;5047432;28;20648;-73
2023/04/22 06:58:25;;;;;;;2.23;1.93;;;12.50;96.80;;;;;;5045504;28;20704;-73
2023/04/22 07:00:52;;;;;;;1.97;1.83;;;12.60;96.80;;;;;;5047420;28;20677;-73
2023/04/22 07:03:19;;;;;;;3.10;2.13;;;12.70;96.50;;;;;;5047155;28;20609;-72
2023/04/22 07:05:47;;;;;;;2.90;1.83;;;12.70;96.60;;;;;;5044733;28;20695;-72
2023/04/22 07:08:15;;;;;;;2.13;1.80;;;12.80;96.50;;;;;;5046953;28;20657;-72
2023/04/22 07:10:42;;;;;;;3.10;2.23;;;12.80;96.70;;;;;;5047554;28;20661;-72
2023/04/22 07:13:09;;;;;;;2.53;2.30;;;12.90;96.50;;;;;;5047239;28;20748;-73
2023/04/22 07:15:35;;;;;;;2.00;1.90;;;12.90;96.40;;;;;;5047403;28;20242;-73
2023/04/22 07:18:02;;;;;;;2.30;2.10;;;13.00;96.50;;;;;;5047179;28;20772;-72
2023/04/22 07:20:29;;;;;;;2.50;2.23;;;13.00;96.40;;;;;;5047006;28;20226;-73
2023/04/22 07:22:56;;;;;;;2.83;1.70;;;13.10;96.50;;;;;;5048089;28;20632;-72
2023/04/22 07:25:24;;;;;;;3.87;2.10;;;13.20;96.40;;;;;;5047175;28;20642;-72
2023/04/22 07:27:51;;;;;;;2.90;1.83;;;13.20;95.70;;;;;;5047460;28;20757;-72
2023/04/22 07:30:17;;;;;;;2.23;2.03;;;13.30;95.80;;;;;;5046520;28;20401;-72
2023/04/22 07:32:44;;;;;;;3.00;2.70;;;13.40;96.00;;;;;;5047819;28;20622;-72
2023/04/22 07:35:11;;;;;;;2.73;1.93;;;13.50;95.70;;;;;;5047246;28;20636;-72
2023/04/22 07:37:38;;;;;;;2.70;1.90;;;13.60;96.10;;;;;;5047528;28;20642;-72
2023/04/22 07:40:10;;;;;;;3.13;2.30;;;13.70;95.40;;;;;;5045722;28;20670;-72
2023/04/22 07:42:38;;;;;;;2.53;2.33;;;13.70;95.40;;;;;;5027817;28;21173;-72
2023/04/22 07:45:06;;;;;;;2.40;2.03;;;13.80;95.40;;;;;;5033443;28;21059;-72
2023/04/22 07:50:22;;;;;;;1.90;1.73;;;14.00;95.00;;;;;;5037891;28;21152;-72
2023/04/22 07:52:49;;;;;;;3.57;1.80;;;14.20;94.70;;;;;;5037422;28;20627;-72
2023/04/22 07:55:16;;;;;;;2.77;2.13;;;14.30;94.60;;;;;;5037964;28;20737;-72
2023/04/22 07:57:44;;;;;;;2.40;1.83;;;14.30;94.10;;;;;;5044608;28;20866;-72
2023/04/22 08:00:12;;;;;;;1.77;1.63;;;14.30;94.10;;;;;;5041328;28;20710;-72
2023/04/22 08:02:39;;;;;;;2.47;2.27;;;14.40;93.70;;;;;;5047686;28;20622;-72
2023/04/22 08:05:07;;;;;;;2.93;2.10;;;14.40;93.30;;;;;;5046700;28;20631;-72
2023/04/22 08:07:34;;;;;;;2.00;1.80;;;14.50;93.60;;;;;;5058725;28;20640;-72
2023/04/22 08:10:01;;;;;;;1.97;1.77;;;14.60;94.10;;;;;;5053895;28;20650;-72
2023/04/22 08:12:59;;;;;;;4.20;3.10;;;14.60;93.70;;;;;;5040391;28;20661;-72
2023/04/22 08:16:01;;;;;;;2.60;1.93;;;14.70;93.90;;;;;;5036963;28;20643;-72
2023/04/22 08:18:28;;;;;;;2.33;1.40;;;14.70;93.60;;;;;;5037055;28;21205;-74
2023/04/22 08:21:36;;;;;;;1.77;1.53;;;14.90;93.40;;;;;;5038182;28;20658;-73
2023/04/22 08:27:54;;;;;;;;;;;;;;;;;;;;;
2023/04/22 08:30:48;;;;;;;0.93;0.93;;;14.90;93.10;;;;;;5034567;28;20646;-72
2023/04/22 08:33:18;;;;;;;2.10;1.23;;;15.00;92.70;;;;;;5039923;28;20837;-73
2023/04/22 08:35:45;;;;;;;1.50;1.40;;;15.10;93.20;;;;;;5040764;28;21095;-72
2023/04/22 08:38:14;;;;;;;2.00;1.53;;;15.30;92.80;;;;;;5037676;28;20988;-72
2023/04/22 08:40:44;;;;;;;1.20;1.10;;;15.50;92.60;;;;;;5040289;28;21044;-72
2023/04/22 08:43:12;;;;;;;1.80;1.20;;;15.70;92.80;;;;;;5038342;28;20732;-72
2023/04/22 08:45:40;;;;;;;2.00;1.70;;;15.80;91.40;;;;;;5040240;28;20666;-72
2023/04/22 08:48:12;;;;;;;0.97;0.97;;;15.90;90.80;;;;;;5040564;28;20624;-72
2023/04/22 08:50:42;;;;;;;2.53;1.20;;;16.00;90.90;;;;;;5041118;28;20651;-72
2023/04/22 08:53:08;;;;;;;1.83;1.73;;;16.10;90.70;;;;;;5040545;28;20714;-71
2023/04/22 08:55:36;;;;;;;1.20;1.17;;;16.10;90.00;;;;;;5042338;28;20741;-71
2023/04/22 08:58:04;;;;;;;1.70;1.47;;;16.30;90.50;;;;;;5049730;28;20637;-72
2023/04/22 09:00:33;;;;;;;2.40;2.20;;;16.40;91.30;;;;;;5049193;28;20678;-72
2023/04/22 09:03:02;;;;;;;2.87;1.80;;;16.60;90.30;;;;;;5047929;28;20684;-73
2023/04/22 09:05:32;;;;;;;1.27;1.20;;;16.70;89.90;;;;;;5030261;28;20738;-73
2023/04/22 09:07:59;;;;;;;1.33;1.23;;;16.70;90.70;;;;;;5045761;28;20987;-73
2023/04/22 09:10:27;;;;;;;1.40;1.30;;;16.90;90.70;;;;;;5065548;28;20673;-75
2023/04/22 09:12:55;;;;;;;1.07;0.97;;;17.00;89.30;;;;;;5050038;28;20633;-76
2023/04/22 09:15:22;;;;;;;1.33;1.23;;;17.10;86.20;;;;;;5048123;28;20641;-75
2023/04/22 09:17:51;;;;;;;1.57;1.47;;;17.30;88.70;;;;;;5049162;28;20633;-74
2023/04/22 09:20:26;;;;;;;1.43;1.33;;;17.50;83.30;;;;;;5047235;28;20720;-73
2023/04/22 09:22:53;;;;;;;14.37;5.93;;;17.60;82.90;;;;;;5042048;28;20629;-72
2023/04/22 09:25:21;;;;;;;2.30;1.80;;;17.60;85.20;;;;;;5046292;28;21077;-75
2023/04/22 09:27:50;;;;;;;1.30;1.20;;;17.70;83.40;;;;;;5048257;28;20623;-76
2023/04/22 09:30:18;;;;;;;1.50;0.90;;;17.80;83.90;;;;;;5046460;28;20665;-73
2023/04/22 09:32:53;;;;;;;1.90;1.53;;;18.00;84.90;;;;;;5045839;28;20649;-76
2023/04/22 09:35:26;;;;;;;2.13;2.03;;;18.20;81.40;;;;;;5047403;28;20633;-73
2023/04/22 09:37:53;;;;;;;1.27;1.17;;;18.40;82.30;;;;;;5048096;28;20624;-72
2023/04/22 09:40:20;;;;;;;1.87;1.77;;;18.50;81.80;;;;;;5046330;28;21203;-75
2023/04/22 09:42:52;;;;;;;1.23;1.13;;;18.50;81.50;;;;;;5046421;28;20622;-76
2023/04/22 09:45:33;;;;;;;1.27;1.20;;;18.60;81.60;;;;;;5043910;28;21242;-77
2023/04/22 09:48:06;;;;;;;2.43;2.23;;;18.60;79.50;;;;;;5042576;28;20630;-73
2023/04/22 09:50:35;;;;;;;1.40;1.00;;;18.70;81.80;;;;;;5044002;28;21215;-75
2023/04/22 09:53:06;;;;;;;1.00;0.97;;;18.90;78.70;;;;;;5042300;28;20637;-75
2023/04/22 09:55:36;;;;;;;0.90;0.90;;;19.00;79.00;;;;;;5043353;28;20656;-75
2023/04/22 09:58:08;;;;;;;1.03;1.03;;;19.10;77.90;;;;;;5046163;28;20635;-75
2023/04/22 10:00:45;;;;;;;1.20;1.03;;;19.10;76.50;;;;;;5041423;28;20677;-75
2023/04/22 10:03:12;;;;;;;1.97;1.40;;;19.00;75.20;;;;;;5044843;28;20849;-76
2023/04/22 10:05:41;;;;;;;1.23;1.13;;;19.30;77.80;;;;;;5047305;28;20650;-77
2023/04/22 10:08:10;;;;;;;1.80;1.50;;;19.30;79.20;;;;;;5043636;28;20748;-77
2023/04/22 10:10:37;;;;;;;1.43;1.23;;;19.50;78.00;;;;;;5044833;28;21021;-77
2023/04/22 10:13:05;;;;;;;2.00;1.57;;;19.60;75.50;;;;;;5047154;28;20811;-71
2023/04/22 10:15:33;;;;;;;1.53;1.43;;;19.70;74.40;;;;;;5046046;28;20690;-73
2023/04/22 10:18:01;;;;;;;1.37;1.23;;;19.90;74.80;;;;;;5045834;28;20626;-74
2023/04/22 10:20:37;;;;;;;1.23;1.13;;;20.00;72.10;;;;;;5047336;28;20674;-92
2023/04/22 10:23:11;;;;;;;0.97;0.80;;;20.10;69.40;;;;;;5047378;28;20626;-75
2023/04/22 10:25:40;;;;;;;1.13;1.07;;;20.40;69.70;;;;;;5045489;28;20654;-75
2023/04/22 10:28:08;;;;;;;1.03;0.90;;;20.40;66.70;;;;;;5044855;28;20633;-76
2023/04/22 10:30:37;;;;;;;1.30;1.20;;;20.50;66.90;;;;;;5039816;28;21252;-77
2023/04/22 10:33:35;;;;;;;1.03;0.97;;;20.60;67.80;;;;;;5040857;28;20623;-74
2023/04/22 10:36:17;;;;;;;1.63;1.27;;;20.70;65.90;;;;;;5042731;28;20650;-77
2023/04/22 10:39:22;;;;;;;0.93;0.93;;;20.90;67.60;;;;;;5040213;28;20627;-76
2023/04/22 10:41:55;;;;;;;0.97;0.93;;;21.20;63.60;;;;;;5038028;28;20658;-76
2023/04/22 10:44:23;;;;;;;4.47;1.30;;;21.20;61.50;;;;;;5042529;28;20629;-76
2023/04/22 10:46:56;;;;;;;1.00;1.00;;;21.20;60.70;;;;;;5040958;28;20644;-76
2023/04/22 10:49:25;;;;;;;1.10;1.10;;;21.20;60.90;;;;;;5038716;28;20983;-76
2023/04/22 10:51:52;;;;;;;0.93;0.70;;;21.20;62.80;;;;;;5035553;28;20651;-76
2023/04/22 10:54:58;;;;;;;1.47;1.37;;;21.30;61.10;;;;;;5046509;28;21027;-77
2023/04/22 10:57:36;;;;;;;2.67;1.30;;;21.50;59.20;;;;;;5007376;28;21027;-77
2023/04/22 11:00:20;;;;;;;0.80;0.80;;;21.60;60.80;;;;;;5042877;28;21273;-76
2023/04/22 11:02:47;;;;;;;1.40;1.30;;;21.90;58.20;;;;;;5042076;28;20662;-76
2023/04/22 11:05:25;;;;;;;1.17;1.07;;;21.90;58.60;;;;;;5038151;28;20612;-76
2023/04/22 11:07:54;;;;;;;1.07;0.97;;;22.10;58.20;;;;;;5041246;28;20634;-76
2023/04/22 11:10:36;;;;;;;1.77;1.27;;;22.30;59.00;;;;;;5041360;28;20638;-76
2023/04/22 11:13:05;;;;;;;3.30;1.60;;;22.30;59.50;;;;;;5043985;28;20626;-75
2023/04/22 11:15:34;;;;;;;1.67;1.57;;;22.50;59.90;;;;;;5045453;28;20754;-76
2023/04/22 11:18:01;;;;;;;1.17;1.17;;;22.70;57.70;;;;;;5042462;28;21428;-75
2023/04/22 11:20:29;;;;;;;1.00;0.90;;;22.80;58.40;;;;;;5037586;28;20651;-75
2023/04/22 11:22:57;;;;;;;1.77;1.30;;;23.00;55.60;;;;;;5044564;28;20670;-75
2023/04/22 11:25:25;;;;;;;1.30;1.20;;;23.20;55.50;;;;;;5040590;28;21233;-75
2023/04/22 11:27:55;;;;;;;1.00;1.00;;;23.20;55.00;;;;;;5041188;28;20628;-75
2023/04/22 11:30:23;;;;;;;1.10;1.00;;;23.40;53.60;;;;;;5040257;28;20702;-75
2023/04/22 11:32:51;;;;;;;1.60;1.43;;;23.50;54.10;;;;;;5042731;28;20626;-75
2023/04/22 11:35:20;;;;;;;1.53;1.37;;;23.80;53.00;;;;;;5045647;28;20674;-76
2023/04/22 11:37:49;;;;;;;1.43;1.20;;;24.00;53.70;;;;;;5045760;28;20622;-75
2023/04/22 11:40:18;;;;;;;1.07;1.07;;;23.90;52.30;;;;;;5045387;28;20622;-75
2023/04/22 11:42:45;;;;;;;1.47;1.00;;;24.20;50.80;;;;;;5045613;28;20658;-75
2023/04/22 11:45:13;;;;;;;1.10;1.00;;;24.50;51.10;;;;;;5044402;28;20640;-75
2023/04/22 11:47:41;;;;;;;1.30;1.20;;;24.80;51.50;;;;;;5045148;28;20983;-76
2023/04/22 11:50:11;;;;;;;1.83;1.67;;;25.00;50.00;;;;;;5044427;28;20624;-75
2023/04/22 11:52:50;;;;;;;1.20;1.10;;;25.50;52.40;;;;;;5044749;28;20743;-76
2023/04/22 11:55:20;;;;;;;0.80;0.80;;;26.30;50.10;;;;;;5043385;28;20984;-76
2023/04/22 11:57:53;;;;;;;1.40;1.30;;;26.40;49.40;;;;;;5037776;28;20635;-75
2023/04/22 12:00:22;;;;;;;1.73;0.80;;;26.70;48.80;;;;;;5045692;28;20626;-76
2023/04/22 12:02:57;;;;;;;1.30;0.77;;;26.80;47.40;;;;;;5049142;28;20649;-76
2023/04/22 12:05:34;;;;;;;1.33;1.23;;;26.00;47.10;;;;;;5049595;28;20759;-76
2023/04/22 12:08:02;;;;;;;1.50;1.40;;;24.80;48.40;;;;;;5047346;28;20632;-75
2023/04/22 12:10:30;;;;;;;1.30;1.20;;;24.90;49.90;;;;;;5050142;28;20656;-76
2023/04/22 12:12:57;;;;;;;1.27;1.00;;;24.90;47.90;;;;;;5049676;28;20629;-76
2023/04/22 12:15:25;;;;;;;1.37;1.23;;;24.90;49.70;;;;;;5047875;28;20656;-76
2023/04/22 12:17:52;;;;;;;1.60;1.40;;;25.50;49.70;;;;;;5046472;28;20645;-76
2023/04/22 12:20:19;;;;;;;1.30;1.20;;;25.30;46.90;;;;;;5049379;28;20634;-75
2023/04/22 12:22:46;;;;;;;1.07;0.97;;;24.60;48.40;;;;;;5047197;28;20669;-76
2023/04/22 12:25:18;;;;;;;2.93;1.50;;;24.30;50.70;;;;;;5046061;28;20631;-75
2023/04/22 12:27:45;;;;;;;1.40;1.30;;;23.80;50.80;;;;;;5049609;28;20640;-77
2023/04/22 12:30:13;;;;;;;1.73;1.07;;;23.80;51.40;;;;;;5048529;28;20641;-75
2023/04/22 12:32:41;;;;;;;1.80;1.30;;;23.60;50.30;;;;;;5046939;28;20632;-76
2023/04/22 12:35:08;;;;;;;1.40;1.30;;;23.30;51.10;;;;;;5049026;28;20998;-75
2023/04/22 12:37:35;;;;;;;1.20;1.20;;;23.30;51.60;;;;;;5049041;28;20635;-75
2023/04/22 12:40:04;;;;;;;2.07;1.53;;;23.00;52.40;;;;;;5048643;28;20624;-76
2023/04/22 12:42:30;;;;;;;1.33;1.23;;;23.10;49.10;;;;;;5046520;28;21222;-76
2023/04/22 12:44:57;;;;;;;1.23;1.13;;;23.20;51.30;;;;;;5048806;28;20729;-76
2023/04/22 12:47:24;;;;;;;1.47;1.10;;;23.50;50.60;;;;;;5047139;28;20660;-75
2023/04/22 12:49:52;;;;;;;1.40;1.30;;;23.60;50.90;;;;;;5043790;28;20629;-75
2023/04/22 12:52:19;;;;;;;1.20;1.10;;;24.20;51.20;;;;;;5047002;28;20639;-75
2023/04/22 12:54:46;;;;;;;0.83;0.83;;;23.90;49.40;;;;;;5047597;28;21274;-74
2023/04/22 12:57:13;;;;;;;1.20;1.10;;;23.50;49.10;;;;;;5046718;28;20646;-76
2023/04/22 12:59:39;;;;;;;1.77;1.67;;;23.30;49.60;;;;;;5040493;28;20935;-75
2023/04/22 13:02:06;;;;;;;1.47;1.37;;;23.10;50.40;;;;;;5047499;28;20693;-76